Time;durP1;ratioP1;P1;durP2;ratioP2;P2;SDS_P1;SDS_P2;PMS_P1;PMS_P2;Temp;Humidity;BMP_temperature;BMP_pressure;BME280_temperature;BME280_humidity;BME280_pressure;Samples;Min_cycle;Max_cycle;Signal;HPM_P1;HPM_P2
2022/05/12 00:00:58;;;;;;;6.70;3.70;;;;;;;12.36;52.18;99382.44;104708;1276;137786;-64
2022/05/12 00:03:26;;;;;;;10.00;4.00;;;;;;;12.38;51.81;99381.40;104780;1276;23966;-64
2022/05/12 00:05:54;;;;;;;8.20;3.50;;;;;;;12.39;52.11;99381.17;104799;1276;25104;-64
2022/05/12 00:08:22;;;;;;;7.20;3.90;;;;;;;12.40;52.10;99381.14;104693;1277;137341;-63
2022/05/12 00:10:50;;;;;;;9.60;3.80;;;;;;;12.39;52.10;99380.10;104779;1277;24915;-63
2022/05/12 00:13:18;;;;;;;9.00;4.20;;;;;;;12.40;52.19;99379.72;108994;1276;138422;-64
2022/05/12 00:15:47;;;;;;;8.30;4.00;;;;;;;12.39;52.11;99380.42;109212;1276;22759;-63
2022/05/12 00:18:15;;;;;;;6.80;4.30;;;;;;;12.38;51.77;99379.22;109226;1276;22472;-64
2022/05/12 00:20:42;;;;;;;7.10;4.10;;;;;;;12.38;51.60;99377.90;108900;1277;138805;-64
2022/05/12 00:23:11;;;;;;;7.90;4.40;;;;;;;12.39;51.90;99378.73;109256;1276;23182;-63
2022/05/12 00:25:40;;;;;;;9.60;4.80;;;;;;;12.40;51.88;99379.50;109117;1276;137254;-64
2022/05/12 00:28:08;;;;;;;8.30;4.10;;;;;;;12.40;52.22;99377.31;109207;1276;23159;-64
2022/05/12 00:30:37;;;;;;;8.10;3.90;;;;;;;12.41;51.83;99380.35;109151;1276;139127;-64
2022/05/12 00:33:06;;;;;;;11.00;4.40;;;;;;;12.42;51.83;99379.14;109191;1276;22531;-64
2022/05/12 00:35:40;;;;;;;8.40;4.40;;;;;;;12.43;51.86;99376.89;109092;1277;22577;-64
2022/05/12 00:38:09;;;;;;;9.50;3.80;;;;;;;12.44;52.00;99377.67;109142;1276;137434;-64
2022/05/12 00:40:39;;;;;;;12.40;4.30;;;;;;;12.45;51.86;99379.63;109260;1276;22494;-64
2022/05/12 00:43:28;;;;;;;10.10;4.20;;;;;;;12.45;52.15;99374.88;108833;1276;138017;-64
2022/05/12 00:45:56;;;;;;;7.50;3.80;;;;;;;12.45;52.54;99378.27;109192;1276;22557;-64
2022/05/12 00:48:24;;;;;;;5.80;3.30;;;;;;;12.44;52.43;99375.15;109178;1276;22466;-64
2022/05/12 00:50:52;;;;;;;13.10;3.70;;;;;;;12.44;52.22;99374.11;109095;1276;137969;-64
2022/05/12 00:53:20;;;;;;;5.60;3.40;;;;;;;12.45;52.40;99374.45;109469;1273;23405;-63
2022/05/12 00:55:48;;;;;;;6.30;3.60;;;;;;;12.45;52.43;99375.86;108223;1273;137934;-63
2022/05/12 00:58:17;;;;;;;5.20;3.30;;;;;;;12.45;52.60;99375.70;104896;1274;25177;-63
2022/05/12 01:00:45;;;;;;;8.40;3.30;;;;;;;12.45;52.97;99373.02;104988;1273;137578;-63
2022/05/12 01:03:17;;;;;;;6.90;3.60;;;;;;;12.44;52.23;99367.05;104981;1273;23945;-63
2022/05/12 01:05:46;;;;;;;10.70;3.80;;;;;;;12.45;51.88;99365.10;104889;1273;23997;-63
2022/05/12 01:08:15;;;;;;;5.70;3.40;;;;;;;12.45;52.27;99364.45;109380;1273;137468;-63
2022/05/12 01:10:45;;;;;;;10.90;4.10;;;;;;;12.45;51.89;99362.91;109356;1273;22416;-64
2022/05/12 01:13:24;;;;;;;6.60;3.30;;;;;;;12.46;51.35;99357.72;109306;1273;138342;-64
2022/05/12 01:15:55;;;;;;;7.70;3.70;;;;;;;12.46;51.18;99357.61;109517;1273;23096;-64
2022/05/12 01:18:25;;;;;;;6.10;2.90;;;;;;;12.48;50.68;99359.86;109339;1273;22414;-64
2022/05/12 01:20:54;;;;;;;6.40;3.30;;;;;;;12.50;50.52;99363.36;109347;1272;138121;-64
2022/05/12 01:23:22;;;;;;;9.10;3.30;;;;;;;12.51;50.99;99360.52;109512;1273;22465;-64
2022/05/12 01:25:55;;;;;;;7.90;3.10;;;;;;;12.53;51.65;99361.01;109390;1273;137804;-64
2022/05/12 01:28:23;;;;;;;11.90;3.10;;;;;;;12.55;51.91;99357.23;109371;1273;22463;-64
2022/05/12 01:30:51;;;;;;;5.30;3.00;;;;;;;12.56;51.76;99353.55;109164;1274;139396;-63
2022/05/12 01:33:20;;;;;;;9.10;3.20;;;;;;;12.58;51.68;99350.55;109446;1273;22429;-64
2022/05/12 01:35:48;;;;;;;5.70;3.20;;;;;;;12.59;51.62;99353.61;109477;1273;23092;-64
2022/05/12 01:38:16;;;;;;;6.00;3.20;;;;;;;12.59;51.79;99354.98;109394;1273;138438;-64
2022/05/12 01:40:44;;;;;;;7.50;3.70;;;;;;;12.59;51.51;99352.52;109494;1273;22400;-64
2022/05/12 01:43:14;;;;;;;8.50;3.40;;;;;;;12.59;51.92;99355.14;109397;1273;137667;-64
2022/05/12 01:45:42;;;;;;;8.30;3.60;;;;;;;12.58;52.14;99352.19;109468;1273;22607;-64
2022/05/12 01:48:11;;;;;;;8.60;3.30;;;;;;;12.57;52.51;99350.70;109461;1273;23266;-63
2022/05/12 01:50:40;;;;;;;6.40;3.50;;;;;;;12.56;52.46;99353.82;109368;1273;137936;-64
2022/05/12 01:53:10;;;;;;;7.10;4.00;;;;;;;12.54;52.20;99346.36;109414;1273;22430;-66
2022/05/12 01:55:38;;;;;;;8.40;4.00;;;;;;;12.53;52.20;99342.86;109389;1272;138306;-65
2022/05/12 01:58:06;;;;;;;7.50;3.60;;;;;;;12.51;52.72;99342.80;109445;1273;22505;-64
2022/05/12 02:00:35;;;;;;;9.70;4.20;;;;;;;12.48;52.68;99344.50;109405;1273;138331;-64
2022/05/12 02:03:03;;;;;;;9.10;4.20;;;;;;;12.46;52.51;99345.21;109490;1273;24672;-64
2022/05/12 02:05:33;;;;;;;10.30;3.60;;;;;;;12.46;52.28;99345.86;109510;1273;23073;-64
2022/05/12 02:08:01;;;;;;;10.30;3.90;;;;;;;12.45;52.09;99344.92;109354;1273;139657;-64
2022/05/12 02:10:31;;;;;;;6.70;3.80;;;;;;;12.44;52.56;99349.85;109505;1272;22423;-64
2022/05/12 02:12:59;;;;;;;6.50;3.30;;;;;;;12.40;53.18;99346.48;109370;1273;139164;-63
2022/05/12 02:15:29;;;;;;;8.30;3.70;;;;;;;12.36;53.47;99344.02;109460;1273;22448;-64
2022/05/12 02:17:58;;;;;;;7.00;3.40;;;;;;;12.33;53.72;99341.77;109515;1273;22342;-64
2022/05/12 02:20:27;;;;;;;5.40;3.00;;;;;;;12.29;53.69;99338.22;109374;1273;137623;-64
2022/05/12 02:22:56;;;;;;;4.60;2.40;;;;;;;12.26;53.47;99340.19;109536;1273;23403;-64
2022/05/12 02:25:24;;;;;;;6.50;3.30;;;;;;;12.26;53.11;99342.98;109350;1273;137971;-64
2022/05/12 02:27:52;;;;;;;4.50;2.80;;;;;;;12.26;53.10;99339.48;109444;1272;22464;-64
2022/05/12 02:30:23;;;;;;;5.90;2.70;;;;;;;12.26;52.75;99343.30;109519;1273;22259;-64
2022/05/12 02:32:51;;;;;;;6.20;3.00;;;;;;;12.27;52.91;99348.05;109389;1273;137427;-63
2022/05/12 02:35:19;;;;;;;6.10;2.90;;;;;;;12.28;52.95;99349.31;109442;1272;22662;-64
2022/05/12 02:37:47;;;;;;;6.10;2.90;;;;;;;12.29;52.56;99349.85;109329;1274;137362;-64
2022/05/12 02:40:18;;;;;;;4.50;2.90;;;;;;;12.31;52.56;99347.95;109480;1273;23468;-64
2022/05/12 02:42:46;;;;;;;6.50;3.10;;;;;;;12.32;52.49;99344.73;109279;1274;137264;-63
2022/05/12 02:45:15;;;;;;;4.70;2.90;;;;;;;12.34;52.60;99344.52;109301;1274;22717;-63
2022/05/12 02:47:44;;;;;;;5.90;2.80;;;;;;;12.35;52.65;99348.34;105013;1274;24001;-63
2022/05/12 02:50:13;;;;;;;7.50;3.50;;;;;;;12.35;53.34;99350.73;104840;1274;138548;-63
2022/05/12 02:52:42;;;;;;;9.80;3.10;;;;;;;12.35;54.10;99350.02;105020;1274;25112;-63
2022/05/12 02:55:10;;;;;;;8.40;3.20;;;;;;;12.32;54.56;99347.58;109271;1273;139447;-63
2022/05/12 02:57:41;;;;;;;6.50;3.00;;;;;;;12.36;53.92;99354.52;109480;1273;23053;-63
2022/05/12 03:00:11;;;;;;;7.00;3.30;;;;;;;12.36;53.66;99352.98;109425;1274;22480;-64
2022/05/12 03:02:39;;;;;;;8.50;2.90;;;;;;;12.37;53.30;99351.51;109367;1273;137397;-64
2022/05/12 03:05:08;;;;;;;9.30;3.40;;;;;;;12.37;53.21;99352.88;109415;1273;23288;-64
2022/05/12 03:07:36;;;;;;;9.40;2.90;;;;;;;12.39;53.92;99352.33;109340;1273;137556;-64
2022/05/12 03:10:04;;;;;;;5.40;2.60;;;;;;;12.40;54.02;99352.56;109452;1274;23129;-64
2022/05/12 03:12:32;;;;;;;10.60;3.30;;;;;;;12.42;53.58;99355.64;109329;1273;137357;-63
2022/05/12 03:15:00;;;;;;;9.30;2.80;;;;;;;12.44;53.05;99352.09;109484;1273;23687;-64
2022/05/12 03:17:29;;;;;;;5.60;2.90;;;;;;;12.46;52.98;99352.15;109431;1273;23327;-64
2022/05/12 03:19:57;;;;;;;8.90;3.00;;;;;;;12.48;52.49;99351.66;109328;1274;137943;-64
2022/05/12 03:22:25;;;;;;;8.10;2.60;;;;;;;12.50;52.58;99351.94;109456;1273;22481;-64
2022/05/12 03:24:53;;;;;;;7.20;2.70;;;;;;;12.53;52.30;99350.02;109384;1273;140425;-64
2022/05/12 03:27:21;;;;;;;4.70;2.90;;;;;;;12.55;52.28;99347.77;109477;1274;22554;-64
2022/05/12 03:29:49;;;;;;;8.00;3.00;;;;;;;12.58;52.32;99344.92;109470;1273;22418;-64
2022/05/12 03:32:17;;;;;;;4.80;3.00;;;;;;;12.62;52.15;99342.41;109272;1274;138696;-64
2022/05/12 03:34:45;;;;;;;7.70;2.70;;;;;;;12.63;52.10;99336.67;109439;1274;22430;-64
2022/05/12 03:37:13;;;;;;;9.50;3.10;;;;;;;12.68;51.82;99338.30;109406;1273;138068;-64
2022/05/12 03:39:43;;;;;;;7.40;3.00;;;;;;;12.71;51.92;99338.44;109455;1274;22405;-64
2022/05/12 03:42:14;;;;;;;5.90;2.90;;;;;;;12.75;52.35;99336.25;109484;1273;22393;-64
2022/05/12 03:44:55;;;;;;;6.70;2.70;;;;;;;12.79;52.30;99341.23;109313;1272;139659;-64
2022/05/12 03:47:25;;;;;;;6.20;2.40;;;;;;;12.83;51.65;99341.44;109488;1273;22429;-64
2022/05/12 03:49:54;;;;;;;6.50;2.90;;;;;;;12.88;51.61;99337.59;109344;1273;137360;-64
2022/05/12 03:52:23;;;;;;;5.10;2.40;;;;;;;12.93;51.53;99341.25;109519;1273;22471;-64
2022/05/12 03:54:51;;;;;;;9.70;2.20;;;;;;;12.98;51.64;99337.95;109235;1274;137428;-64
2022/05/12 03:57:19;;;;;;;7.00;2.50;;;;;;;13.03;51.50;99341.75;109486;1273;22624;-64
2022/05/12 03:59:48;;;;;;;5.70;2.40;;;;;;;13.09;51.60;99338.36;109500;1273;22459;-64
2022/05/12 04:02:16;;;;;;;8.20;2.90;;;;;;;13.15;51.73;99339.49;109343;1273;137453;-64
2022/05/12 04:04:46;;;;;;;6.10;2.80;;;;;;;13.21;51.75;99339.16;109450;1273;22448;-64
2022/05/12 04:07:17;;;;;;;6.20;3.00;;;;;;;13.27;51.43;99338.92;109319;1273;139475;-64
2022/05/12 04:09:46;;;;;;;5.90;3.20;;;;;;;13.33;51.14;99332.39;109475;1273;22457;-64
2022/05/12 04:12:14;;;;;;;11.70;3.50;;;;;;;13.38;51.02;99335.43;109438;1273;22407;-64
2022/05/12 04:14:45;;;;;;;11.00;3.80;;;;;;;13.44;50.55;99338.23;109398;1273;138522;-63
2022/05/12 04:17:15;;;;;;;9.10;3.80;;;;;;;13.47;50.56;99331.39;109473;1273;22568;-64
2022/05/12 04:19:45;;;;;;;8.90;3.40;;;;;;;13.56;50.77;99334.90;109383;1273;140677;-64
2022/05/12 04:22:13;;;;;;;10.70;4.30;;;;;;;13.60;50.75;99339.68;109491;1273;22430;-64
2022/05/12 04:24:41;;;;;;;9.70;4.10;;;;;;;13.65;50.94;99342.95;109353;1273;139636;-64
2022/05/12 04:27:10;;;;;;;8.80;3.10;;;;;;;13.69;50.52;99339.16;109473;1272;22462;-63
2022/05/12 04:29:42;;;;;;;11.30;3.80;;;;;;;13.73;50.49;99339.16;109449;1273;22408;-64
2022/05/12 04:32:10;;;;;;;9.10;3.50;;;;;;;13.77;50.51;99340.64;109372;1273;138140;-64
2022/05/12 04:37:29;;;;;;;7.40;3.70;;;;;;;13.84;50.44;99338.69;109356;1271;139305;-64
2022/05/12 04:40:20;;;;;;;34.40;5.10;;;;;;;13.87;50.46;99331.95;109430;1273;23586;-64
2022/05/12 04:42:49;;;;;;;16.80;4.10;;;;;;;13.93;49.97;99332.20;109175;1274;137789;-64
2022/05/12 04:45:18;;;;;;;10.90;3.60;;;;;;;13.99;50.08;99332.88;109460;1273;23508;-64
2022/05/12 04:47:47;;;;;;;10.10;3.10;;;;;;;14.08;50.18;99331.93;109455;1273;22385;-64
2022/05/12 04:50:18;;;;;;;12.20;3.10;;;;;;;14.19;50.31;99328.39;109309;1273;139036;-64
2022/05/12 04:52:47;;;;;;;8.40;3.70;;;;;;;14.34;50.07;99332.20;109487;1273;23311;-64
2022/05/12 04:55:15;;;;;;;9.00;3.20;;;;;;;14.58;49.95;99326.59;109195;1273;139358;-64
2022/05/12 04:57:45;;;;;;;6.00;2.70;;;;;;;14.90;49.22;99326.82;105018;1273;22579;-68
2022/05/12 05:00:16;;;;;;;11.10;2.90;;;;;;;15.27;48.21;99327.48;105034;1273;25555;-64
2022/05/12 05:02:44;;;;;;;6.30;2.60;;;;;;;15.68;47.38;99325.86;109383;1273;138524;-64
2022/05/12 05:05:13;;;;;;;12.30;2.60;;;;;;;16.09;46.77;99323.04;109450;1273;22475;-64
2022/05/12 05:07:42;;;;;;;6.80;2.90;;;;;;;16.52;46.10;99320.79;109352;1273;138385;-65
2022/05/12 05:10:11;;;;;;;13.90;2.80;;;;;;;16.98;45.41;99319.20;109465;1273;22864;-65
2022/05/12 05:12:43;;;;;;;16.00;3.30;;;;;;;17.46;44.60;99314.03;109374;1273;139621;-64
2022/05/12 05:15:11;;;;;;;7.20;2.70;;;;;;;17.93;43.52;99308.80;109475;1273;22513;-65
2022/05/12 05:17:41;;;;;;;10.90;2.90;;;;;;;18.41;42.20;99308.58;109494;1273;23148;-65
2022/05/12 05:20:16;;;;;;;25.60;4.90;;;;;;;18.86;41.42;99306.59;109369;1273;138492;-65
2022/05/12 05:22:45;;;;;;;7.20;3.30;;;;;;;19.30;40.44;99302.69;109443;1272;23144;-64
2022/05/12 05:25:14;;;;;;;9.50;4.10;;;;;;;19.74;39.26;99298.90;109388;1273;137981;-64
2022/05/12 05:27:43;;;;;;;7.00;2.60;;;;;;;20.16;38.15;99294.63;109478;1272;22524;-65
2022/05/12 05:30:13;;;;;;;4.60;2.90;;;;;;;20.54;37.06;99288.45;109449;1273;22544;-65
2022/05/12 05:32:41;;;;;;;8.90;3.60;;;;;;;20.89;36.51;99282.28;109336;1273;137469;-65
2022/05/12 05:35:12;;;;;;;8.50;2.90;;;;;;;21.25;35.92;99280.43;109481;1273;23485;-65
2022/05/12 05:37:41;;;;;;;4.30;2.30;;;;;;;21.60;35.35;99280.09;109320;1273;138878;-65
2022/05/12 05:40:13;;;;;;;13.10;2.70;;;;;;;21.94;34.35;99273.14;109423;1273;22507;-65
2022/05/12 05:42:42;;;;;;;7.60;3.10;;;;;;;22.28;34.05;99269.59;109346;1273;138287;-64
2022/05/12 05:45:15;;;;;;;10.00;2.80;;;;;;;22.57;33.61;99266.05;109455;1273;23258;-65
2022/05/12 05:47:51;;;;;;;7.90;2.70;;;;;;;22.86;32.81;99259.67;109428;1273;22654;-65
2022/05/12 05:50:22;;;;;;;4.20;2.70;;;;;;;23.09;32.58;99253.45;109350;1273;137130;-65
2022/05/12 05:55:36;;;;;;;8.80;3.00;;;;;;;23.33;31.86;99246.45;109326;1273;137203;-64
2022/05/12 05:58:05;;;;;;;4.20;2.80;;;;;;;23.34;32.38;99245.98;109427;1273;22419;-65
2022/05/12 06:00:36;;;;;;;9.90;2.70;;;;;;;23.25;32.24;99242.05;109268;1273;137566;-64
2022/05/12 06:03:05;;;;;;;12.50;3.20;;;;;;;23.05;31.60;99236.55;109468;1273;22384;-65
2022/05/12 06:05:33;;;;;;;6.20;2.50;;;;;;;22.88;31.78;99247.74;109404;1273;22509;-65
2022/05/12 06:08:02;;;;;;;8.00;3.00;;;;;;;22.67;32.16;99244.25;109370;1272;137345;-65
2022/05/12 06:10:31;;;;;;;11.10;2.90;;;;;;;22.49;32.38;99242.52;109442;1273;22408;-65
2022/05/12 06:12:59;;;;;;;6.90;2.90;;;;;;;22.30;32.73;99239.70;109340;1272;137560;-64
2022/05/12 06:15:27;;;;;;;7.90;3.20;;;;;;;22.19;33.08;99239.23;109439;1273;22416;-65
2022/05/12 06:17:55;;;;;;;7.40;3.40;;;;;;;22.10;33.58;99237.08;109444;1273;22439;-65
2022/05/12 06:20:24;;;;;;;9.40;2.60;;;;;;;22.04;33.50;99231.31;109341;1272;139088;-65
2022/05/12 06:22:52;;;;;;;10.70;3.10;;;;;;;21.98;33.47;99218.88;109495;1272;23498;-65
2022/05/12 06:25:20;;;;;;;5.40;3.00;;;;;;;21.94;33.66;99219.51;109333;1273;138840;-65
2022/05/12 06:27:48;;;;;;;6.50;2.80;;;;;;;21.92;33.79;99210.02;109460;1273;22469;-65
2022/05/12 06:30:16;;;;;;;5.80;2.80;;;;;;;21.91;34.11;99208.20;109456;1273;22423;-65
2022/05/12 06:32:44;;;;;;;5.40;3.20;;;;;;;21.88;34.36;99201.37;109306;1273;137870;-65
2022/05/12 06:35:16;;;;;;;13.10;4.80;;;;;;;21.91;34.77;99206.02;109484;1273;22577;-65
2022/05/12 06:37:44;;;;;;;8.90;4.10;;;;;;;21.93;35.16;99204.32;109321;1272;139514;-65
2022/05/12 06:40:12;;;;;;;7.00;2.90;;;;;;;21.94;34.81;99206.88;109470;1273;22593;-64
2022/05/12 06:42:46;;;;;;;12.20;4.40;;;;;;;21.95;34.73;99200.80;109363;1273;140626;-65
2022/05/12 06:45:17;;;;;;;43.60;8.30;;;;;;;21.97;35.26;99194.46;109477;1273;23212;-65
2022/05/12 06:47:48;;;;;;;6.20;2.80;;;;;;;22.04;36.00;99196.52;109434;1273;22450;-65
2022/05/12 06:50:17;;;;;;;4.60;2.90;;;;;;;22.13;35.50;99194.13;109342;1273;137410;-65
2022/05/12 06:52:46;;;;;;;10.50;5.90;;;;;;;22.22;35.80;99194.92;109492;1273;23278;-65
2022/05/12 06:55:14;;;;;;;7.80;4.00;;;;;;;22.30;36.05;99196.63;109357;1273;139126;-65
2022/05/12 06:57:43;;;;;;;6.40;3.60;;;;;;;22.36;35.94;99191.23;109426;1273;22430;-65
2022/05/12 07:00:13;;;;;;;44.60;5.90;;;;;;;22.43;35.83;99195.66;109467;1273;22466;-65
2022/05/12 07:02:44;;;;;;;16.30;3.60;;;;;;;22.49;35.88;99193.58;109353;1273;138649;-65
2022/05/12 07:05:17;;;;;;;8.10;2.70;;;;;;;22.53;35.52;99196.88;109465;1273;22497;-65
2022/05/12 07:07:45;;;;;;;44.50;5.10;;;;;;;22.57;35.15;99197.02;109392;1273;137143;-65
2022/05/12 07:10:14;;;;;;;10.40;3.00;;;;;;;22.60;35.39;99191.87;109469;1272;22472;-65
2022/05/12 07:12:42;;;;;;;35.10;4.30;;;;;;;22.63;35.66;99186.09;109336;1273;137892;-64
2022/05/12 07:15:11;;;;;;;10.70;3.20;;;;;;;22.66;35.50;99186.45;109425;1273;23515;-65
2022/05/12 07:17:42;;;;;;;16.30;3.90;;;;;;;22.69;35.64;99186.31;109481;1272;22447;-65
2022/05/12 07:28:34;;;;;;;9.80;3.40;;;;;;;22.82;36.24;99190.16;109450;1273;22427;-65
2022/05/12 07:31:03;;;;;;;9.80;3.20;;;;;;;22.85;36.74;99184.89;109301;1273;138323;-65
2022/05/12 07:33:45;;;;;;;12.40;3.80;;;;;;;22.88;36.63;99180.15;109432;1273;22978;-65
2022/05/12 07:36:14;;;;;;;9.80;3.30;;;;;;;22.94;36.50;99179.52;109408;1273;23306;-65
2022/05/12 07:38:43;;;;;;;9.50;3.00;;;;;;;22.99;36.48;99182.84;109323;1273;137887;-65
2022/05/12 07:41:12;;;;;;;9.40;3.60;;;;;;;23.04;36.45;99180.17;109389;1273;22435;-65
2022/05/12 07:43:41;;;;;;;11.10;3.00;;;;;;;23.09;36.26;99175.14;109334;1272;139391;-65
2022/05/12 07:46:10;;;;;;;10.30;3.60;;;;;;;23.12;36.90;99170.09;109428;1273;22512;-65
2022/05/12 07:48:39;;;;;;;5.90;3.30;;;;;;;23.18;37.33;99173.05;109315;1273;138209;-65
2022/05/12 07:51:07;;;;;;;8.30;3.20;;;;;;;23.25;37.14;99166.27;109460;1272;22529;-65
2022/05/12 07:53:35;;;;;;;8.20;3.10;;;;;;;23.33;37.34;99165.24;109447;1273;22386;-65
2022/05/12 07:56:04;;;;;;;7.80;3.50;;;;;;;23.39;37.53;99157.64;109357;1273;138983;-65
2022/05/12 07:58:32;;;;;;;8.10;3.30;;;;;;;23.45;37.53;99154.08;109382;1273;22435;-65
2022/05/12 08:01:00;;;;;;;6.10;3.30;;;;;;;23.49;37.59;99148.11;109262;1273;139501;-65
2022/05/12 08:03:29;;;;;;;8.40;3.30;;;;;;;23.57;37.20;99144.85;109411;1273;22535;-65
2022/05/12 08:05:58;;;;;;;5.20;3.40;;;;;;;23.62;37.73;99142.54;109241;1273;246490;-59
2022/05/12 08:09:19;;;;;;;16.40;4.40;;;;;;;23.74;37.43;99134.27;101446;1312;566309;-59
2022/05/12 08:11:47;;;;;;;8.20;4.00;;;;;;;23.79;37.33;99129.59;108108;1287;23339;-59
2022/05/12 08:14:15;;;;;;;13.50;3.90;;;;;;;23.86;37.69;99130.66;108224;1285;136731;-59
2022/05/12 08:16:44;;;;;;;9.50;3.60;;;;;;;23.93;37.42;99132.93;109224;1276;22438;-59
2022/05/12 08:19:13;;;;;;;10.00;3.60;;;;;;;23.99;37.42;99129.41;109119;1276;137149;-59
2022/05/12 08:21:41;;;;;;;10.00;3.40;;;;;;;24.02;36.96;99125.92;109225;1276;22450;-59
2022/05/12 08:24:08;;;;;;;6.20;3.60;;;;;;;24.06;37.51;99129.76;109265;1273;175383;-59
2022/05/12 08:26:36;;;;;;;9.50;3.70;;;;;;;24.09;37.40;99132.15;109356;1273;137913;-59
2022/05/12 08:29:08;;;;;;;7.00;3.90;;;;;;;24.13;37.41;99127.73;109389;1273;22425;-59
2022/05/12 08:31:36;;;;;;;9.30;3.70;;;;;;;24.19;38.12;99126.77;109347;1273;138399;-60
2022/05/12 08:34:04;;;;;;;8.90;3.50;;;;;;;24.25;37.62;99123.52;109427;1273;22433;-60
2022/05/12 08:36:32;;;;;;;7.40;3.30;;;;;;;24.32;38.06;99120.21;109441;1273;22504;-60
2022/05/12 08:39:00;;;;;;;14.20;3.10;;;;;;;24.41;37.50;99115.11;109295;1273;137115;-60
2022/05/12 08:41:34;;;;;;;11.00;4.00;;;;;;;24.51;37.55;99112.58;109413;1273;22464;-57
2022/05/12 08:44:11;;;;;;;11.10;3.60;;;;;;;24.59;37.37;99111.67;109315;1273;138204;-57
2022/05/12 08:46:39;;;;;;;7.30;4.70;;;;;;;24.67;37.02;99112.55;109385;1273;22430;-59
2022/05/12 08:49:19;;;;;;;11.50;5.30;;;;;;;24.72;36.78;99108.45;109344;1273;137302;-57
2022/05/12 08:51:52;;;;;;;32.10;6.50;;;;;;;24.74;37.21;99104.85;109436;1273;22446;-58
2022/05/12 08:54:23;;;;;;;22.70;5.50;;;;;;;24.81;36.83;99101.42;109380;1272;23214;-57
2022/05/12 08:56:59;;;;;;;34.60;6.70;;;;;;;24.85;36.90;99104.30;109163;1273;137642;-58
2022/05/12 08:59:28;;;;;;;29.10;5.60;;;;;;;24.90;36.39;99099.49;109388;1273;22987;-58
2022/05/12 09:02:04;;;;;;;7.20;3.90;;;;;;;24.93;36.33;99098.01;109236;1273;137766;-58
2022/05/12 09:05:03;;;;;;;6.70;3.50;;;;;;;24.97;36.35;99094.00;109400;1273;22457;-58
2022/05/12 09:07:53;;;;;;;39.30;5.10;;;;;;;25.01;36.14;99086.70;109288;1273;137279;-58
2022/05/12 09:10:37;;;;;;;15.80;3.50;;;;;;;25.04;35.72;99094.67;109415;1271;22427;-58
2022/05/12 09:13:12;;;;;;;41.10;6.90;;;;;;;25.09;35.84;99087.77;109221;1274;137636;-58
2022/05/12 09:15:47;;;;;;;70.90;8.20;;;;;;;25.11;35.94;99084.13;109249;1273;23672;-58
2022/05/12 09:18:29;;;;;;;10.30;3.50;;;;;;;25.13;35.70;99080.74;109477;1273;23273;-58
2022/05/12 09:21:02;;;;;;;15.10;5.10;;;;;;;25.14;35.75;99070.16;109307;1274;138250;-58
2022/05/12 09:23:31;;;;;;;6.50;4.00;;;;;;;25.15;35.45;99064.23;109416;1274;23518;-58
2022/05/12 09:25:59;;;;;;;12.40;4.10;;;;;;;25.16;35.68;99064.66;109307;1274;137854;-58
2022/05/12 09:28:28;;;;;;;17.50;4.50;;;;;;;25.20;36.00;99058.84;109321;1274;22530;-58
2022/05/12 09:30:59;;;;;;;10.20;4.10;;;;;;;25.25;36.20;99055.75;109265;1274;137402;-58
2022/05/12 09:33:35;;;;;;;12.50;3.50;;;;;;;25.31;36.48;99055.25;109384;1274;22398;-58
2022/05/12 09:36:06;;;;;;;17.40;5.00;;;;;;;25.39;35.88;99049.82;109388;1274;22426;-58
2022/05/12 09:38:41;;;;;;;8.30;3.60;;;;;;;25.44;35.31;99050.33;109330;1274;137262;-58
2022/05/12 09:41:17;;;;;;;11.40;3.60;;;;;;;25.47;35.23;99037.23;109404;1274;22455;-58
2022/05/12 09:43:45;;;;;;;20.40;4.30;;;;;;;25.50;35.94;99044.70;109268;1274;137129;-58
2022/05/12 09:46:19;;;;;;;11.60;3.90;;;;;;;25.53;35.33;99040.06;109223;1274;22613;-58
2022/05/12 09:48:48;;;;;;;19.60;5.30;;;;;;;25.57;34.80;99037.03;109198;1276;22434;-58
2022/05/12 09:51:21;;;;;;;5.20;3.40;;;;;;;25.59;34.93;99031.49;109273;1273;138503;-58
2022/05/12 09:53:54;;;;;;;17.40;4.40;;;;;;;25.61;35.23;99025.23;109410;1274;22562;-58
2022/05/12 09:56:31;;;;;;;14.60;4.40;;;;;;;25.63;35.41;99019.79;109307;1272;137526;-58
2022/05/12 09:59:14;;;;;;;21.40;5.30;;;;;;;25.67;35.61;99013.80;109403;1273;22454;-58
2022/05/12 10:01:51;;;;;;;10.60;4.20;;;;;;;25.73;35.27;99020.21;109323;1273;137128;-58
2022/05/12 10:10:22;;;;;;;11.50;4.20;;;;;;;25.94;34.32;99012.38;109470;1273;22402;-58
2022/05/12 10:12:59;;;;;;;12.70;3.90;;;;;;;25.94;34.18;99008.86;109206;1273;22445;-58
2022/05/12 10:15:29;;;;;;;26.70;6.50;;;;;;;25.96;35.06;99004.67;109312;1273;136867;-58
2022/05/12 10:18:20;;;;;;;23.50;4.60;;;;;;;26.01;34.43;99003.88;109469;1273;22375;-58
2022/05/12 10:20:50;;;;;;;12.00;3.80;;;;;;;26.06;33.77;98997.27;109269;1273;138230;-58
2022/05/12 10:23:33;;;;;;;14.20;3.60;;;;;;;26.13;33.93;98992.80;109420;1273;23243;-58
2022/05/12 10:26:21;;;;;;;14.50;3.90;;;;;;;26.17;34.12;98991.95;109216;1274;137170;-58
2022/05/12 10:29:08;;;;;;;10.70;3.60;;;;;;;26.22;33.76;98987.55;109389;1274;22427;-58
2022/05/12 10:31:45;;;;;;;25.00;4.80;;;;;;;26.23;33.94;98992.91;109042;1274;139501;-58
2022/05/12 10:34:44;;;;;;;15.90;4.20;;;;;;;26.26;33.53;98988.08;109467;1273;22435;-58
2022/05/12 10:37:37;;;;;;;23.60;5.10;;;;;;;26.29;33.39;98984.33;109306;1273;137302;-59
2022/05/12 10:40:22;;;;;;;11.20;3.90;;;;;;;26.30;33.29;98978.13;109470;1273;23102;-58
2022/05/12 10:43:19;;;;;;;15.30;4.90;;;;;;;26.32;33.40;98969.20;109344;1273;24116;-58
2022/05/12 10:46:05;;;;;;;11.50;4.20;;;;;;;26.30;33.03;98973.64;109216;1273;137772;-58
2022/05/12 10:48:37;;;;;;;19.50;4.20;;;;;;;26.26;32.94;98971.09;109353;1273;22356;-58
2022/05/12 10:51:09;;;;;;;18.10;4.60;;;;;;;26.26;33.29;98965.83;109220;1273;137391;-58
2022/05/12 10:53:48;;;;;;;11.00;4.40;;;;;;;26.30;33.32;98954.96;109288;1273;22452;-58
2022/05/12 10:56:53;;;;;;;26.30;5.60;;;;;;;26.32;33.71;98946.88;109340;1273;137502;-58
2022/05/12 10:59:37;;;;;;;10.20;4.40;;;;;;;26.40;33.07;98949.23;108925;1280;22465;-58
2022/05/12 11:02:19;;;;;;;25.80;4.40;;;;;;;26.40;33.02;98941.07;108876;1279;138513;-58
2022/05/12 11:05:00;;;;;;;85.20;8.00;;;;;;;26.39;32.66;98933.02;108921;1280;22540;-58
2022/05/12 11:07:38;;;;;;;18.60;4.30;;;;;;;26.36;32.94;98933.13;108843;1280;139333;-58
2022/05/12 11:10:26;;;;;;;67.10;9.70;;;;;;;26.37;33.37;98919.42;108909;1279;22687;-58
2022/05/12 11:12:56;;;;;;;11.80;4.10;;;;;;;26.40;32.85;98913.70;108768;1280;22429;-58
2022/05/12 11:15:27;;;;;;;28.20;5.00;;;;;;;26.43;33.09;98907.35;108758;1279;138077;-58
2022/05/12 11:17:59;;;;;;;19.90;4.40;;;;;;;26.47;32.99;98910.76;108748;1280;23270;-58
2022/05/12 11:20:32;;;;;;;22.60;4.20;;;;;;;26.51;33.02;98910.66;108892;1279;138222;-58
2022/05/12 11:23:15;;;;;;;24.20;4.50;;;;;;;26.55;32.85;98901.13;108970;1279;22476;-58
2022/05/12 11:25:50;;;;;;;14.20;3.90;;;;;;;26.58;32.64;98900.52;108722;1279;138431;-57
2022/05/12 11:32:21;;;;;;;22.90;5.80;;;;;;;26.62;32.24;98894.90;107704;1289;137720;-57
2022/05/12 11:34:51;;;;;;;11.60;4.10;;;;;;;26.67;32.83;98889.55;107662;1290;22481;-58
2022/05/12 11:37:26;;;;;;;15.40;5.00;;;;;;;26.72;32.39;98888.64;108055;1285;22441;-57
2022/05/12 11:39:55;;;;;;;20.60;4.70;;;;;;;26.75;31.98;98880.94;108154;1285;136982;-57
2022/05/12 11:42:25;;;;;;;33.60;6.30;;;;;;;26.75;31.95;98881.58;108271;1283;22301;-58
2022/05/12 11:45:08;;;;;;;34.90;5.50;;;;;;;26.77;31.92;98874.33;108044;1285;138634;-57
2022/05/12 11:47:50;;;;;;;46.10;5.60;;;;;;;26.81;32.12;98867.60;108255;1284;23545;-57
2022/05/12 11:50:27;;;;;;;;;;;;;;;26.84;31.77;98863.86;108202;1284;137623;-58
2022/05/12 11:53:12;;;;;;;15.20;3.50;;;;;;;26.89;31.56;98861.84;108244;1285;22455;-57
2022/05/12 11:56:01;;;;;;;17.60;4.80;;;;;;;26.92;31.28;98857.09;108142;1285;139197;-57
2022/05/12 11:58:47;;;;;;;16.10;4.10;;;;;;;26.92;31.35;98856.20;108245;1285;23700;-58
2022/05/12 12:01:21;;;;;;;21.30;4.40;;;;;;;26.92;31.56;98852.72;108327;1285;23438;-57
2022/05/12 12:03:49;;;;;;;26.50;5.10;;;;;;;26.95;31.63;98842.86;108169;1284;137884;-58